Time;durP1;ratioP1;P1;durP2;ratioP2;P2;SDS_P1;SDS_P2;PMS_P1;PMS_P2;Temp;Humidity;BMP_temperature;BMP_pressure;BME280_temperature;BME280_humidity;BME280_pressure;Samples;Min_cycle;Max_cycle;Signal;HPM_P1;HPM_P2
2023/06/06 00:02:13;;;;;;;8.90;4.00;;;;;;;22.19;35.51;100683.91;108262;1254;72655;-67
2023/06/06 00:04:40;;;;;;;7.90;4.70;;;;;;;22.26;35.38;100682.27;108140;1253;60417;-67
2023/06/06 00:07:09;;;;;;;7.20;4.00;;;;;;;22.70;34.84;100680.83;108236;1256;60335;-67
2023/06/06 00:09:36;;;;;;;6.20;4.30;;;;;;;22.98;34.38;100677.00;108216;1253;72577;-68
2023/06/06 00:12:04;;;;;;;10.60;4.00;;;;;;;22.95;34.47;100678.30;108191;1254;70126;-66
2023/06/06 00:14:32;;;;;;;8.50;4.40;;;;;;;22.79;34.73;100681.70;108227;1254;72287;-67
2023/06/06 00:17:00;;;;;;;7.30;3.90;;;;;;;23.07;34.22;100682.20;108262;1256;61782;-67
2023/06/06 00:19:28;;;;;;;5.30;3.50;;;;;;;22.95;34.31;100680.81;108300;1252;60307;-67
2023/06/06 00:21:55;;;;;;;9.00;3.90;;;;;;;23.02;34.25;100678.66;108207;1255;72590;-66
2023/06/06 00:24:23;;;;;;;11.20;4.50;;;;;;;23.04;34.15;100685.28;108288;1254;69182;-66
2023/06/06 00:26:50;;;;;;;8.30;3.90;;;;;;;23.23;33.81;100686.98;108299;1256;72769;-67
2023/06/06 00:29:18;;;;;;;11.30;4.40;;;;;;;23.21;33.85;100687.52;108137;1256;60770;-67
2023/06/06 00:31:45;;;;;;;10.60;4.40;;;;;;;23.31;33.67;100688.98;108171;1254;60152;-67
2023/06/06 00:34:13;;;;;;;6.20;4.00;;;;;;;23.14;33.85;100682.00;108165;1254;72915;-67
2023/06/06 00:36:40;;;;;;;9.40;4.40;;;;;;;23.07;33.90;100684.48;108165;1254;70302;-67
2023/06/06 00:39:08;;;;;;;8.20;3.80;;;;;;;22.89;34.21;100684.72;108228;1254;71375;-67
2023/06/06 00:41:35;;;;;;;12.00;4.50;;;;;;;23.05;33.98;100687.59;108171;1254;61006;-67
2023/06/06 00:44:02;;;;;;;7.60;4.50;;;;;;;22.81;34.18;100688.77;108260;1255;60434;-66
2023/06/06 00:46:30;;;;;;;6.00;3.90;;;;;;;22.78;34.25;100688.20;108186;1254;73927;-67
2023/06/06 00:48:58;;;;;;;6.40;4.20;;;;;;;22.72;34.23;100682.27;108172;1252;69704;-67
2023/06/06 00:51:25;;;;;;;5.90;3.80;;;;;;;22.53;34.41;100685.00;108179;1254;71485;-67
2023/06/06 00:53:53;;;;;;;8.50;3.90;;;;;;;22.27;34.76;100686.27;108093;1254;60540;-67
2023/06/06 00:56:22;;;;;;;12.70;4.30;;;;;;;22.21;35.01;100685.15;108050;1259;60331;-66
2023/06/06 00:58:49;;;;;;;5.80;3.70;;;;;;;22.34;34.88;100684.89;107963;1252;72667;-65
2023/06/06 01:01:19;;;;;;;6.00;4.10;;;;;;;22.14;35.18;100685.88;108050;1255;69308;-67
2023/06/06 01:03:47;;;;;;;8.50;4.40;;;;;;;22.18;35.34;100690.37;108039;1254;72505;-66
2023/06/06 01:06:15;;;;;;;9.80;4.30;;;;;;;22.14;35.19;100690.14;107919;1254;60396;-66
2023/06/06 01:08:42;;;;;;;7.00;4.30;;;;;;;22.03;35.33;100692.98;108130;1253;60273;-67
2023/06/06 01:11:13;;;;;;;8.90;4.30;;;;;;;21.76;35.65;100691.62;108166;1256;72676;-67
2023/06/06 01:13:57;;;;;;;10.90;4.10;;;;;;;21.70;35.79;100692.64;108213;1254;70020;-66
2023/06/06 01:16:24;;;;;;;9.00;4.20;;;;;;;21.59;35.86;100690.91;108078;1254;71425;-66
2023/06/06 01:18:53;;;;;;;7.40;4.30;;;;;;;21.71;35.68;100691.43;108064;1257;61677;-66
2023/06/06 01:21:20;;;;;;;7.30;4.60;;;;;;;21.85;35.48;100686.44;108029;1253;60335;-67
2023/06/06 01:23:50;;;;;;;8.10;4.80;;;;;;;21.21;36.33;100689.36;108026;1254;72897;-66
2023/06/06 01:26:17;;;;;;;5.60;4.20;;;;;;;21.70;35.95;100692.22;108033;1254;70106;-67
2023/06/06 01:28:45;;;;;;;8.60;4.00;;;;;;;21.80;35.73;100690.08;108204;1253;72631;-67
2023/06/06 01:31:14;;;;;;;5.90;4.10;;;;;;;21.87;35.75;100695.09;108107;1254;61677;-65
2023/06/06 01:33:46;;;;;;;10.10;4.60;;;;;;;21.73;35.96;100698.46;108060;1253;60520;-66
2023/06/06 01:36:30;;;;;;;8.90;4.90;;;;;;;21.69;36.18;100699.45;108038;1258;73923;-65
2023/06/06 01:39:27;;;;;;;8.10;4.50;;;;;;;21.17;36.55;100702.14;108193;1254;70613;-66
2023/06/06 01:41:55;;;;;;;5.70;4.00;;;;;;;19.76;39.05;100708.31;107973;1259;73217;-66
2023/06/06 01:44:23;;;;;;;6.20;4.60;;;;;;;20.02;38.56;100711.02;108127;1254;60349;-65
2023/06/06 01:46:51;;;;;;;6.70;3.90;;;;;;;20.09;38.69;100710.03;108000;1254;59973;-66
2023/06/06 01:49:18;;;;;;;6.40;4.20;;;;;;;20.31;38.23;100711.55;108074;1254;71792;-66
2023/06/06 01:51:46;;;;;;;8.30;5.10;;;;;;;20.49;37.95;100704.44;108156;1255;70401;-65
2023/06/06 01:54:13;;;;;;;8.70;4.60;;;;;;;20.47;38.04;100704.00;108240;1254;71669;-65
2023/06/06 01:56:40;;;;;;;6.60;4.80;;;;;;;20.51;38.10;100705.57;108118;1252;60872;-66
2023/06/06 01:59:09;;;;;;;10.10;4.50;;;;;;;20.51;38.15;100709.82;108012;1254;60358;-65
2023/06/06 02:01:36;;;;;;;10.60;5.20;;;;;;;20.40;38.46;100706.51;108091;1254;72569;-65
2023/06/06 02:04:03;;;;;;;8.00;5.00;;;;;;;20.33;38.76;100706.59;108086;1254;69253;-65
2023/06/06 02:06:32;;;;;;;9.20;4.30;;;;;;;20.44;38.60;100704.78;108168;1254;73247;-66
2023/06/06 02:09:00;;;;;;;6.70;4.60;;;;;;;20.31;38.99;100712.99;108067;1252;61635;-67
2023/06/06 02:11:28;;;;;;;8.50;4.40;;;;;;;20.33;39.11;100712.81;108176;1253;60023;-66
2023/06/06 02:13:57;;;;;;;7.80;4.60;;;;;;;20.66;38.52;100717.36;108120;1254;73846;-65
2023/06/06 02:16:24;;;;;;;7.80;5.00;;;;;;;20.71;38.38;100719.89;108215;1254;70143;-66
2023/06/06 02:18:51;;;;;;;6.80;4.00;;;;;;;20.70;38.31;100719.05;108189;1254;71467;-69
2023/06/06 02:21:19;;;;;;;9.10;4.80;;;;;;;20.77;38.26;100717.70;108240;1253;61704;-67
2023/06/06 02:23:48;;;;;;;9.60;5.00;;;;;;;20.56;38.68;100716.98;108181;1256;60437;-66
2023/06/06 02:26:16;;;;;;;7.70;5.10;;;;;;;20.92;38.16;100719.14;108188;1252;73092;-67
2023/06/06 02:28:44;;;;;;;8.60;4.90;;;;;;;20.55;38.83;100715.83;108294;1254;70082;-67
2023/06/06 02:31:14;;;;;;;7.70;4.80;;;;;;;21.01;38.32;100712.95;108199;1254;72779;-65
2023/06/06 02:33:42;;;;;;;10.40;4.10;;;;;;;20.82;38.64;100710.02;108295;1253;60491;-66
2023/06/06 02:36:10;;;;;;;6.90;4.70;;;;;;;20.74;38.79;100713.05;108242;1254;60309;-67
2023/06/06 02:38:38;;;;;;;6.10;4.80;;;;;;;20.94;38.64;100711.88;108087;1253;72551;-66
2023/06/06 02:41:05;;;;;;;10.30;4.90;;;;;;;20.15;39.83;100714.04;108151;1254;70216;-66
2023/06/06 02:43:35;;;;;;;7.60;4.50;;;;;;;20.04;40.44;100713.23;108181;1252;71549;-67
2023/06/06 02:46:02;;;;;;;6.60;4.70;;;;;;;20.44;39.98;100712.27;108126;1254;61711;-66
2023/06/06 02:48:31;;;;;;;6.60;4.40;;;;;;;21.43;38.49;100709.76;108111;1253;59231;-65
2023/06/06 02:50:59;;;;;;;9.90;4.50;;;;;;;21.51;38.20;100715.45;108144;1254;73762;-65
2023/06/06 02:53:27;;;;;;;8.70;4.60;;;;;;;21.48;38.46;100715.50;108265;1254;72461;-66
2023/06/06 02:55:54;;;;;;;8.50;5.10;;;;;;;21.66;38.28;100719.74;108131;1254;72752;-66
2023/06/06 02:58:28;;;;;;;6.50;4.40;;;;;;;21.80;38.08;100715.07;108157;1254;61589;-67
2023/06/06 03:00:56;;;;;;;15.10;5.00;;;;;;;21.92;37.81;100717.40;108181;1254;60331;-67
2023/06/06 03:03:24;;;;;;;10.20;4.50;;;;;;;21.80;38.15;100715.29;108100;1260;73800;-67
2023/06/06 03:05:54;;;;;;;9.90;5.10;;;;;;;22.02;37.77;100719.83;108115;1260;70138;-67
2023/06/06 03:08:23;;;;;;;12.50;5.70;;;;;;;21.72;38.36;100720.09;108117;1254;71811;-66
2023/06/06 03:10:51;;;;;;;8.20;4.70;;;;;;;22.23;37.68;100715.81;108109;1257;61629;-67
2023/06/06 03:13:19;;;;;;;10.60;4.80;;;;;;;22.25;37.67;100718.15;108038;1252;59984;-64
2023/06/06 03:15:46;;;;;;;29.50;5.80;;;;;;;22.45;37.66;100714.67;107975;1253;72242;-65
2023/06/06 03:18:18;;;;;;;10.50;5.30;;;;;;;22.71;37.48;100715.08;108005;1254;69716;-67
2023/06/06 03:20:48;;;;;;;15.20;5.10;;;;;;;23.01;37.05;100714.02;107921;1253;71422;-67
2023/06/06 03:23:16;;;;;;;12.00;5.10;;;;;;;23.19;36.77;100714.19;108067;1254;60465;-66
2023/06/06 03:25:43;;;;;;;11.60;5.00;;;;;;;23.11;36.77;100714.50;107991;1253;60449;-66
2023/06/06 03:28:12;;;;;;;10.60;5.10;;;;;;;23.38;36.50;100716.38;108258;1253;73755;-67
2023/06/06 03:30:40;;;;;;;10.40;4.30;;;;;;;23.73;36.00;100719.45;108230;1254;69172;-67
2023/06/06 03:33:08;;;;;;;6.80;4.60;;;;;;;24.00;35.47;100721.39;108081;1254;72724;-69
2023/06/06 03:35:36;;;;;;;10.30;4.50;;;;;;;24.08;35.39;100722.33;108214;1254;60395;-65
2023/06/06 03:38:04;;;;;;;9.10;4.40;;;;;;;24.06;35.34;100721.52;108135;1254;60467;-66
2023/06/06 03:40:31;;;;;;;8.20;4.50;;;;;;;23.75;35.77;100725.80;108302;1256;73816;-67
2023/06/06 03:43:00;;;;;;;10.10;4.70;;;;;;;23.76;35.97;100721.60;108189;1254;70344;-67
2023/06/06 03:45:27;;;;;;;8.30;4.70;;;;;;;23.69;35.98;100719.98;108023;1254;72613;-66
2023/06/06 03:47:55;;;;;;;13.50;4.70;;;;;;;23.73;36.08;100723.46;108063;1254;60441;-67
2023/06/06 03:50:23;;;;;;;49.20;6.50;;;;;;;24.09;35.54;100720.92;108224;1252;59997;-67
2023/06/06 03:52:50;;;;;;;15.30;4.60;;;;;;;24.01;35.60;100727.20;108053;1254;73782;-66
2023/06/06 03:55:17;;;;;;;17.20;4.90;;;;;;;23.85;35.94;100724.92;108121;1254;70474;-67
2023/06/06 03:57:45;;;;;;;12.20;4.70;;;;;;;23.97;35.87;100722.48;108135;1254;72457;-65
2023/06/06 04:00:15;;;;;;;15.80;5.00;;;;;;;24.01;35.84;100723.44;108364;1254;60474;-66
2023/06/06 04:02:46;;;;;;;7.60;3.60;;;;;;;24.22;35.56;100721.64;108295;1254;60262;-67
2023/06/06 04:05:14;;;;;;;10.20;5.40;;;;;;;24.66;34.98;100720.91;108086;1254;73801;-68
2023/06/06 04:07:41;;;;;;;10.80;4.70;;;;;;;24.97;34.68;100720.63;108063;1253;70113;-68
2023/06/06 04:10:09;;;;;;;10.00;4.60;;;;;;;25.17;34.49;100714.88;108108;1253;71897;-67
2023/06/06 04:12:39;;;;;;;8.20;4.50;;;;;;;25.43;34.09;100714.31;108254;1253;60372;-66
2023/06/06 04:15:09;;;;;;;;;;;;;;;25.67;33.87;100716.67;108138;1254;60469;-67
2023/06/06 04:17:36;;;;;;;;;;;;;;;26.01;33.25;100717.52;108111;1253;73934;-67
2023/06/06 04:20:08;;;;;;;;;;;;;;;26.27;33.14;100717.80;108249;1254;69154;-67
2023/06/06 04:22:36;;;;;;;;;;;;;;;26.16;33.43;100716.17;108155;1254;72674;-67
2023/06/06 04:25:03;;;;;;;;;;;;;;;26.41;33.02;100715.28;108196;1253;61762;-67
2023/06/06 04:27:31;;;;;;;;;;;;;;;26.61;33.39;100712.77;108209;1254;59968;-67
2023/06/06 04:29:59;;;;;;;;;;;;;;;27.06;32.92;100707.02;108100;1252;73808;-67
2023/06/06 04:32:26;;;;;;;;;;;;;;;27.69;32.09;100703.61;108162;1254;69962;-67
2023/06/06 04:34:57;;;;;;;;;;;;;;;28.40;31.43;100705.06;108177;1254;72682;-68
2023/06/06 04:37:27;;;;;;;;;;;;;;;28.71;30.57;100705.22;108129;1257;62253;-68
2023/06/06 04:39:56;;;;;;;;;;;;;;;28.92;30.12;100704.38;108149;1252;60482;-68
2023/06/06 04:42:32;;;;;;;;;;;;;;;29.18;29.84;100703.63;108060;1254;73816;-68
2023/06/06 04:45:02;;;;;;;;;;;;;;;29.29;29.23;100702.59;108174;1254;70742;-67
2023/06/06 04:47:30;;;;;;;;;;;;;;;29.12;28.93;100704.08;108131;1258;72658;-67
2023/06/06 04:49:58;;;;;;;;;;;;;;;29.00;28.91;100706.52;108213;1254;60325;-68
2023/06/06 04:52:25;;;;;;;;;;;;;;;29.09;28.74;100705.80;108184;1253;60326;-67
2023/06/06 04:54:55;;;;;;;;;;;;;;;29.12;28.39;100707.98;108272;1253;73824;-68
2023/06/06 04:57:23;;;;;;;;;;;;;;;29.35;28.18;100704.70;108167;1253;70675;-68
2023/06/06 04:59:51;;;;;;;;;;;;;;;29.39;27.85;100702.60;108244;1253;72713;-69
2023/06/06 05:02:20;;;;;;;;;;;;;;;29.42;26.92;100706.08;108166;1253;60112;-68
2023/06/06 05:04:50;;;;;;;;;;;;;;;29.63;27.09;100701.81;108326;1253;60351;-67
2023/06/06 05:07:17;;;;;;;;;;;;;;;29.78;27.11;100702.34;108284;1253;73790;-68
2023/06/06 05:09:44;;;;;;;;;;;;;;;29.96;27.03;100700.95;108285;1254;69563;-67
2023/06/06 05:12:11;;;;;;;;;;;;;;;30.02;26.73;100705.23;108300;1254;71493;-67
2023/06/06 05:14:39;;;;;;;;;;;;;;;30.13;27.05;100703.98;108234;1252;60433;-68
2023/06/06 05:17:06;;;;;;;;;;;;;;;30.30;26.65;100707.21;108325;1253;60549;-66
2023/06/06 05:19:34;;;;;;;;;;;;;;;30.29;26.77;100701.98;108298;1253;73849;-67
2023/06/06 05:22:06;;;;;;;;;;;;;;;30.46;26.60;100704.64;108283;1254;70260;-67
2023/06/06 05:24:33;;;;;;;;;;;;;;;30.59;26.51;100703.34;108216;1253;72479;-69
2023/06/06 05:27:00;;;;;;;;;;;;;;;30.92;26.28;100700.55;108268;1253;60399;-66
2023/06/06 05:29:28;;;;;;;;;;;;;;;31.35;26.23;100698.95;108173;1254;60294;-67
2023/06/06 05:31:55;;;;;;;;;;;;;;;31.80;26.51;100701.46;108294;1254;72549;-67
2023/06/06 05:34:22;;;;;;;;;;;;;;;31.91;26.74;100702.17;108313;1253;68859;-68
2023/06/06 05:36:50;;;;;;;;;;;;;;;32.15;25.94;100708.96;108207;1253;71740;-68
2023/06/06 05:39:18;;;;;;;;;;;;;;;32.24;25.71;100707.33;108101;1253;60323;-68
2023/06/06 05:41:47;;;;;;;;;;;;;;;32.42;24.68;100702.05;108147;1252;60424;-68
2023/06/06 05:44:14;;;;;;;;;;;;;;;33.01;23.07;100703.75;108245;1254;73832;-68
2023/06/06 05:46:42;;;;;;;;;;;;;;;33.37;21.34;100700.48;108206;1253;70271;-67
2023/06/06 05:49:09;;;;;;;;;;;;;;;33.81;21.12;100694.84;108020;1256;72486;-67
2023/06/06 05:51:38;;;;;;;;;;;;;;;34.39;20.33;100692.70;108234;1253;60433;-68
2023/06/06 05:54:12;;;;;;;;;;;;;;;34.55;19.57;100687.09;108279;1253;60520;-68
2023/06/06 05:56:43;;;;;;;;;;;;;;;34.92;19.04;100684.25;108283;1254;64914;-68
2023/06/06 05:59:11;;;;;;;;;;;;;;;35.15;18.66;100686.95;108288;1254;60634;-68
2023/06/06 06:01:39;;;;;;;;;;;;;;;35.65;18.28;100688.38;108259;1254;63917;-69
2023/06/06 06:04:07;;;;;;;;;;;;;;;36.07;17.85;100688.84;108248;1254;60275;-69
2023/06/06 06:06:37;;;;;;;;;;;;;;;36.81;17.53;100689.02;108207;1253;60267;-68
2023/06/06 06:09:05;;;;;;;;;;;;;;;37.39;16.79;100686.86;108215;1253;65097;-68
2023/06/06 06:11:32;;;;;;;;;;;;;;;37.62;15.94;100689.19;108154;1253;61372;-68
2023/06/06 06:14:00;;;;;;;;;;;;;;;37.87;15.78;100687.86;108141;1253;62613;-68
2023/06/06 06:16:27;;;;;;;;;;;;;;;37.98;15.83;100688.30;108152;1253;60230;-68
2023/06/06 06:18:54;;;;;;;;;;;;;;;37.88;15.74;100684.77;108159;1254;60457;-68
2023/06/06 06:21:21;;;;;;;;;;;;;;;37.92;15.69;100687.28;108134;1253;64996;-66
2023/06/06 06:23:49;;;;;;;;;;;;;;;37.56;15.77;100687.14;108224;1252;61282;-68
2023/06/06 06:26:17;;;;;;;;;;;;;;;37.61;15.67;100688.27;108119;1253;63723;-68
2023/06/06 06:28:44;;;;;;;;;;;;;;;37.90;15.65;100687.63;108102;1254;60402;-68
2023/06/06 06:33:13;;;;;;;9.00;2.40;;;;;;;36.39;16.86;100689.35;104886;1292;601118;-69
2023/06/06 06:35:41;;;;;;;11.10;3.00;;;;;;;37.84;15.75;100686.84;107305;1264;59203;-69
2023/06/06 06:38:12;;;;;;;8.30;2.50;;;;;;;38.10;15.60;100688.27;107370;1269;59117;-68
2023/06/06 06:40:39;;;;;;;11.30;2.40;;;;;;;38.32;15.52;100686.16;107370;1264;63494;-69
2023/06/06 06:43:06;;;;;;;8.40;2.30;;;;;;;38.34;15.23;100687.63;107353;1264;61452;-69
2023/06/06 06:45:39;;;;;;;6.90;2.40;;;;;;;38.32;15.09;100686.94;107308;1267;62543;-68
2023/06/06 06:48:06;;;;;;;9.50;2.40;;;;;;;38.30;15.04;100689.58;107292;1266;59116;-68
2023/06/06 06:50:34;;;;;;;4.00;1.90;;;;;;;38.72;14.74;100685.55;107434;1262;59323;-66
2023/06/06 06:53:02;;;;;;;3.70;2.10;;;;;;;38.98;14.29;100684.93;107411;1262;62119;-68
2023/06/06 06:55:30;;;;;;;5.50;1.60;;;;;;;39.04;14.03;100685.92;107457;1262;61679;-67
2023/06/06 06:57:58;;;;;;;6.20;1.80;;;;;;;39.09;14.34;100686.24;107419;1262;63658;-67
2023/06/06 07:00:26;;;;;;;6.00;2.10;;;;;;;39.31;14.16;100682.36;107458;1262;59762;-67
2023/06/06 07:02:56;;;;;;;5.70;1.90;;;;;;;39.37;13.72;100679.00;107436;1264;59556;-67
2023/06/06 07:05:29;;;;;;;3.20;1.90;;;;;;;39.54;13.40;100682.48;107433;1262;64119;-68
2023/06/06 07:07:56;;;;;;;8.20;2.10;;;;;;;39.23;13.89;100678.80;107471;1262;61712;-66
2023/06/06 07:10:25;;;;;;;5.70;1.80;;;;;;;39.17;14.15;100679.69;107459;1264;62465;-68
2023/06/06 07:12:52;;;;;;;2.70;1.80;;;;;;;38.96;14.21;100682.46;107547;1264;59575;-69
2023/06/06 07:15:24;;;;;;;6.80;1.60;;;;;;;38.69;14.22;100680.86;108070;1254;59784;-68
2023/06/06 07:17:52;;;;;;;3.50;1.80;;;;;;;38.89;14.02;100677.92;108124;1254;62847;-69
2023/06/06 07:20:21;;;;;;;6.50;1.70;;;;;;;39.30;13.68;100676.42;108091;1254;61395;-69
2023/06/06 07:22:52;;;;;;;5.00;1.80;;;;;;;39.34;13.51;100675.23;108111;1255;63838;-69
2023/06/06 07:25:22;;;;;;;;;;;;;;;39.68;13.29;100676.43;107937;1256;59621;-68
2023/06/06 07:27:49;;;;;;;3.20;1.70;;;;;;;40.19;12.96;100680.23;107806;1256;59102;-67
2023/06/06 07:30:19;;;;;;;3.70;1.60;;;;;;;40.63;11.99;100680.39;107877;1262;62911;-68
2023/06/06 07:32:49;;;;;;;5.50;1.70;;;;;;;40.58;11.48;100679.92;107653;1257;61571;-69
2023/06/06 07:35:20;;;;;;;3.70;1.80;;;;;;;40.50;11.34;100683.44;107800;1257;62444;-69
2023/06/06 07:37:50;;;;;;;3.00;1.70;;;;;;;40.35;11.43;100680.69;107790;1257;59506;-69
2023/06/06 07:40:17;;;;;;;5.40;1.70;;;;;;;40.28;11.59;100681.44;107811;1257;60271;-69
2023/06/06 07:42:46;;;;;;;2.80;1.70;;;;;;;40.23;11.38;100679.95;107837;1256;64129;-69
2023/06/06 07:45:13;;;;;;;7.30;1.70;;;;;;;40.24;11.60;100677.20;107819;1257;60238;-68
2023/06/06 07:47:41;;;;;;;6.10;1.90;;;;;;;40.55;11.40;100681.36;107810;1257;63755;-70
2023/06/06 07:50:08;;;;;;;3.70;1.50;;;;;;;40.79;11.30;100676.77;107788;1257;59467;-69
2023/06/06 07:52:38;;;;;;;5.10;2.00;;;;;;;40.35;11.29;100679.02;107765;1257;59535;-69
2023/06/06 07:55:07;;;;;;;4.00;1.90;;;;;;;40.04;11.06;100674.86;107738;1257;62910;-68
2023/06/06 07:57:34;;;;;;;5.90;2.00;;;;;;;40.04;11.28;100668.61;107770;1256;60107;-69
2023/06/06 08:00:10;;;;;;;5.40;2.20;;;;;;;39.97;11.38;100668.52;107791;1257;62519;-69
2023/06/06 08:02:39;;;;;;;3.20;1.50;;;;;;;39.75;11.26;100669.15;107788;1257;59723;-69
2023/06/06 08:05:08;;;;;;;4.40;1.90;;;;;;;40.05;11.28;100674.98;107822;1257;59430;-69
2023/06/06 08:07:40;;;;;;;5.50;1.90;;;;;;;40.39;11.14;100679.73;107844;1257;64145;-69
2023/06/06 08:10:08;;;;;;;3.50;2.00;;;;;;;40.85;10.83;100678.16;107872;1256;60828;-69
2023/06/06 08:12:36;;;;;;;2.90;1.60;;;;;;;41.59;10.64;100671.77;107822;1262;63770;-69
2023/06/06 08:15:04;;;;;;;2.60;1.70;;;;;;;41.46;10.60;100673.36;107800;1256;59539;-69
2023/06/06 08:17:31;;;;;;;3.70;1.90;;;;;;;41.49;10.86;100674.64;107795;1259;59615;-69
2023/06/06 08:19:59;;;;;;;7.50;2.00;;;;;;;41.42;11.20;100675.42;107810;1257;62891;-69
2023/06/06 08:22:27;;;;;;;7.20;3.00;;;;;;;41.24;10.99;100677.24;107794;1257;61618;-69
2023/06/06 08:24:55;;;;;;;7.60;1.80;;;;;;;41.54;10.93;100672.56;107739;1257;64089;-69
2023/06/06 08:27:22;;;;;;;4.30;1.50;;;;;;;41.83;11.04;100668.73;107733;1257;59092;-70
2023/06/06 08:29:50;;;;;;;3.10;1.80;;;;;;;42.13;10.86;100669.17;107736;1260;59395;-69
2023/06/06 08:32:20;;;;;;;;;;;;;;;42.04;10.75;100664.98;107647;1257;64150;-69
2023/06/06 08:34:47;;;;;;;4.70;1.70;;;;;;;41.49;10.54;100666.23;107769;1256;61481;-69
2023/06/06 08:37:15;;;;;;;6.20;1.90;;;;;;;41.11;10.95;100673.02;107894;1257;63780;-69
2023/06/06 08:39:44;;;;;;;4.50;2.20;;;;;;;41.03;11.25;100672.46;107894;1257;59575;-68
2023/06/06 08:42:12;;;;;;;2.90;1.80;;;;;;;40.97;11.07;100669.14;107872;1257;59608;-69
2023/06/06 08:44:39;;;;;;;3.50;1.70;;;;;;;40.88;11.44;100664.81;107788;1257;64567;-69
2023/06/06 08:47:09;;;;;;;3.10;1.70;;;;;;;40.65;11.38;100665.90;107780;1257;61340;-69
2023/06/06 08:49:36;;;;;;;2.80;1.80;;;;;;;40.53;11.43;100662.83;107745;1257;63752;-69
2023/06/06 08:52:07;;;;;;;3.60;2.00;;;;;;;40.55;11.56;100658.12;107852;1260;59554;-69
2023/06/06 08:54:34;;;;;;;5.10;2.50;;;;;;;40.11;11.53;100658.26;107856;1257;59417;-69
2023/06/06 08:57:07;;;;;;;4.90;1.70;;;;;;;39.52;11.85;100656.24;107922;1255;64057;-68
2023/06/06 08:59:37;;;;;;;3.80;1.80;;;;;;;39.46;12.03;100652.02;107905;1257;60557;-69
2023/06/06 09:02:06;;;;;;;4.80;1.50;;;;;;;39.89;12.02;100652.70;107946;1260;63745;-69
2023/06/06 09:04:34;;;;;;;2.60;1.70;;;;;;;39.58;11.85;100647.20;107850;1257;59532;-69
2023/06/06 09:07:04;;;;;;;4.40;2.20;;;;;;;40.30;11.43;100646.39;107866;1257;59970;-70
2023/06/06 09:09:33;;;;;;;2.80;1.80;;;;;;;40.90;10.99;100643.63;107934;1257;74606;-69
2023/06/06 09:12:03;;;;;;;2.40;1.70;;;;;;;40.99;10.93;100643.73;107883;1256;61508;-70
2023/06/06 09:14:31;;;;;;;4.20;1.60;;;;;;;41.53;10.96;100641.02;107857;1257;63860;-69
2023/06/06 09:16:59;;;;;;;5.40;1.90;;;;;;;41.89;10.84;100637.02;107797;1257;59599;-69
2023/06/06 09:19:27;;;;;;;3.90;1.70;;;;;;;41.65;10.59;100635.77;107911;1257;59606;-69
2023/06/06 09:21:57;;;;;;;3.50;1.80;;;;;;;41.23;10.96;100631.09;107857;1257;63062;-69
2023/06/06 09:24:25;;;;;;;5.50;2.10;;;;;;;41.08;11.21;100636.23;107839;1262;61521;-67
2023/06/06 09:26:52;;;;;;;3.80;1.70;;;;;;;40.93;11.28;100637.41;107927;1260;63753;-69
2023/06/06 09:29:24;;;;;;;4.90;2.00;;;;;;;40.95;11.27;100639.66;107735;1257;59595;-69
2023/06/06 09:31:52;;;;;;;2.70;1.80;;;;;;;40.74;11.32;100636.40;107851;1257;59521;-69
2023/06/06 09:34:23;;;;;;;3.10;1.90;;;;;;;39.97;11.50;100636.32;107778;1260;64191;-67
2023/06/06 09:36:51;;;;;;;2.20;1.70;;;;;;;39.46;11.91;100630.89;107789;1257;60249;-69
2023/06/06 09:39:18;;;;;;;2.90;2.00;;;;;;;39.29;11.80;100629.34;107641;1262;63759;-68
2023/06/06 09:41:46;;;;;;;6.10;2.10;;;;;;;39.37;11.95;100626.37;107786;1257;59448;-68
2023/06/06 09:44:24;;;;;;;4.60;2.20;;;;;;;39.51;12.14;100625.57;107790;1257;59653;-70
2023/06/06 09:47:00;;;;;;;6.90;2.50;;;;;;;39.71;12.09;100625.38;107773;1256;64149;-68
2023/06/06 09:49:35;;;;;;;6.60;2.00;;;;;;;39.64;11.88;100623.83;107773;1257;60096;-68
2023/06/06 09:52:03;;;;;;;8.60;2.70;;;;;;;39.53;11.96;100626.02;107831;1257;62435;-68
2023/06/06 09:54:32;;;;;;;5.20;2.50;;;;;;;39.52;11.96;100622.67;107833;1257;59506;-68
2023/06/06 09:57:01;;;;;;;6.20;1.80;;;;;;;39.45;12.16;100621.26;107805;1257;59625;-69
2023/06/06 09:59:29;;;;;;;5.40;2.00;;;;;;;39.12;12.38;100616.76;107687;1257;63144;-67
2023/06/06 10:01:59;;;;;;;6.60;2.10;;;;;;;39.08;12.36;100616.01;107633;1257;61338;-69
2023/06/06 10:04:27;;;;;;;4.80;2.10;;;;;;;39.15;12.45;100615.11;107830;1257;63757;-69
2023/06/06 10:07:01;;;;;;;5.20;2.10;;;;;;;38.86;12.17;100608.06;107652;1256;59475;-69
2023/06/06 10:09:30;;;;;;;6.50;2.20;;;;;;;38.75;12.16;100603.20;107775;1257;59602;-73
2023/06/06 10:11:57;;;;;;;5.80;2.20;;;;;;;38.67;12.13;100607.30;107853;1256;64084;-69
2023/06/06 10:14:26;;;;;;;4.60;2.30;;;;;;;38.34;12.05;100611.75;107697;1262;61513;-69
2023/06/06 10:16:56;;;;;;;6.00;2.30;;;;;;;37.76;12.73;100614.00;107825;1261;63932;-69
2023/06/06 10:19:24;;;;;;;5.00;2.20;;;;;;;37.60;12.83;100610.23;107731;1257;60158;-68
2023/06/06 10:21:52;;;;;;;5.70;2.00;;;;;;;37.85;12.92;100612.28;107795;1257;59135;-68
2023/06/06 10:24:20;;;;;;;4.50;2.10;;;;;;;37.69;13.37;100610.65;107758;1256;64262;-69
2023/06/06 10:27:06;;;;;;;4.40;2.00;;;;;;;37.91;13.00;100609.83;107823;1255;70405;-69
2023/06/06 10:29:59;;;;;;;2.90;2.00;;;;;;;38.28;12.90;100607.70;107745;1258;63953;-67
2023/06/06 10:32:45;;;;;;;5.50;2.20;;;;;;;38.49;12.73;100608.42;107893;1260;59480;-68
2023/06/06 10:35:13;;;;;;;5.20;2.30;;;;;;;38.58;12.41;100604.09;107899;1257;59423;-69
2023/06/06 10:37:41;;;;;;;4.50;2.00;;;;;;;39.08;11.98;100599.73;107619;1257;62879;-68
2023/06/06 10:40:09;;;;;;;6.70;2.10;;;;;;;39.49;11.96;100603.23;107799;1260;61352;-69
2023/06/06 10:42:40;;;;;;;4.90;2.40;;;;;;;39.66;11.79;100604.91;107860;1257;63837;-69
2023/06/06 10:45:08;;;;;;;6.40;2.50;;;;;;;39.62;11.82;100603.94;107635;1257;60267;-67
2023/06/06 10:47:40;;;;;;;6.40;2.20;;;;;;;39.69;11.89;100604.33;107683;1256;60494;-69
2023/06/06 10:50:11;;;;;;;4.60;2.50;;;;;;;39.81;11.86;100603.52;107912;1257;63728;-69
2023/06/06 10:52:59;;;;;;;4.30;2.10;;;;;;;39.92;11.56;100602.80;107759;1256;61338;-70
2023/06/06 10:55:27;;;;;;;3.10;2.00;;;;;;;39.36;11.63;100601.73;107862;1257;62472;-69
2023/06/06 10:58:03;;;;;;;6.20;2.40;;;;;;;38.76;12.17;100597.27;107783;1257;60360;-68
2023/06/06 11:00:34;;;;;;;3.60;2.10;;;;;;;38.76;12.33;100592.87;107775;1256;60200;-68
2023/06/06 11:03:06;;;;;;;6.10;2.10;;;;;;;39.16;12.20;100591.20;107894;1260;65011;-68
2023/06/06 11:05:33;;;;;;;8.10;2.00;;;;;;;39.94;11.83;100595.06;107904;1260;69956;-68
2023/06/06 11:08:01;;;;;;;6.80;2.40;;;;;;;40.40;11.64;100592.21;107752;1257;63955;-69
2023/06/06 11:10:34;;;;;;;4.90;2.30;;;;;;;40.53;11.17;100591.27;107622;1257;60268;-68
2023/06/06 11:13:23;;;;;;;5.90;2.40;;;;;;;40.62;11.12;100592.46;107724;1257;60149;-68
2023/06/06 11:15:57;;;;;;;3.50;1.90;;;;;;;40.49;11.44;100589.61;107623;1262;64948;-67
2023/06/06 11:18:39;;;;;;;5.00;2.60;;;;;;;40.34;11.58;100587.84;107699;1258;60338;-69
2023/06/06 11:21:07;;;;;;;4.70;2.20;;;;;;;40.11;11.83;100584.77;107753;1257;63696;-68
2023/06/06 11:23:43;;;;;;;6.70;2.20;;;;;;;40.48;11.83;100581.84;107905;1260;60344;-68
2023/06/06 11:26:14;;;;;;;6.60;2.40;;;;;;;41.03;11.48;100578.00;107817;1258;60139;-69
2023/06/06 11:28:42;;;;;;;3.70;2.00;;;;;;;41.26;11.13;100578.50;107663;1256;65540;-68
2023/06/06 11:31:09;;;;;;;7.70;2.60;;;;;;;41.48;10.75;100577.92;107859;1256;61402;-69
2023/06/06 11:33:37;;;;;;;5.80;1.90;;;;;;;41.75;10.35;100577.90;107671;1258;63717;-69
2023/06/06 11:36:05;;;;;;;3.50;2.10;;;;;;;41.79;10.14;100574.85;107858;1261;59135;-70
2023/06/06 11:38:33;;;;;;;2.90;1.90;;;;;;;41.76;10.42;100577.86;107859;1257;60318;-68
2023/06/06 11:41:03;;;;;;;5.40;2.00;;;;;;;41.71;10.45;100573.96;107794;1257;63671;-68